Time;durP1;ratioP1;P1;durP2;ratioP2;P2;SDS_P1;SDS_P2;PMS_P1;PMS_P2;Temp;Humidity;BMP_temperature;BMP_pressure;BME280_temperature;BME280_humidity;BME280_pressure;Samples;Min_cycle;Max_cycle;Signal;HPM_P1;HPM_P2
2022/12/19 00:01:56;;;;;;;;;;;7.40;99.90;;;;;;5042654;28;19940;-78
2022/12/19 00:04:21;;;;;;;;;;;7.30;99.90;;;;;;5037032;28;19931;-78
2022/12/19 00:06:46;;;;;;;;;;;7.40;99.90;;;;;;5044711;28;19936;-79
2022/12/19 00:09:12;;;;;;;;;;;7.50;99.90;;;;;;5036644;28;20034;-79
2022/12/19 00:11:38;;;;;;;;;;;7.80;99.90;;;;;;5041274;28;19920;-79
2022/12/19 00:14:04;;;;;;;;;;;7.80;99.90;;;;;;5041009;28;20119;-78
2022/12/19 00:16:30;;;;;;;;;;;8.00;99.90;;;;;;5045172;28;19921;-78
2022/12/19 00:18:57;;;;;;;;;;;8.00;99.90;;;;;;5041124;28;20055;-79
2022/12/19 00:21:24;;;;;;;;;;;8.00;99.90;;;;;;5039689;28;19923;-79
2022/12/19 00:23:50;;;;;;;;;;;8.20;99.90;;;;;;5043484;28;19920;-81
2022/12/19 00:26:17;;;;;;;;;;;8.50;99.90;;;;;;5045733;28;19915;-77
2022/12/19 00:28:43;;;;;;;;;;;8.60;99.90;;;;;;5042969;28;19921;-80
2022/12/19 00:31:12;;;;;;;;;;;8.60;99.90;;;;;;5043559;28;19913;-80
2022/12/19 00:33:37;;;;;;;;;;;8.70;99.90;;;;;;5040126;28;20529;-79
2022/12/19 00:36:04;;;;;;;;;;;8.80;99.90;;;;;;5043798;28;20024;-77
2022/12/19 00:38:30;;;;;;;;;;;8.90;99.90;;;;;;5044690;28;19913;-78
2022/12/19 00:41:06;;;;;;;;;;;8.90;99.90;;;;;;5039569;28;19920;-79
2022/12/19 00:43:31;;;;;;;;;;;8.90;99.90;;;;;;5045163;28;19917;-78
2022/12/19 00:45:57;;;;;;;;;;;9.10;99.90;;;;;;5045098;28;20534;-78
2022/12/19 00:48:22;;;;;;;;;;;9.30;99.90;;;;;;5045315;28;19917;-79
2022/12/19 00:50:48;;;;;;;;;;;9.30;99.90;;;;;;5049835;28;19921;-79
2022/12/19 00:53:13;;;;;;;;;;;9.20;99.90;;;;;;5053000;28;19928;-79
2022/12/19 00:55:39;;;;;;;;;;;9.30;99.90;;;;;;5056277;28;20370;-80
2022/12/19 00:58:04;;;;;;;;;;;9.50;99.90;;;;;;5042445;28;19972;-78
2022/12/19 01:00:30;;;;;;;;;;;9.40;99.90;;;;;;5043370;28;19909;-80
2022/12/19 01:02:55;;;;;;;;;;;9.50;99.90;;;;;;5041583;28;19925;-79
2022/12/19 01:05:21;;;;;;;;;;;9.60;99.90;;;;;;5041829;28;19968;-79
2022/12/19 01:07:46;;;;;;;;;;;9.60;99.90;;;;;;5042792;28;19913;-78
2022/12/19 01:10:12;;;;;;;;;;;9.50;99.90;;;;;;5045894;28;19913;-76
2022/12/19 01:12:46;;;;;;;;;;;9.50;99.90;;;;;;5045471;28;19916;-78
2022/12/19 01:15:14;;;;;;;;;;;9.70;99.90;;;;;;5047223;28;20383;-80
2022/12/19 01:17:40;;;;;;;;;;;9.60;99.90;;;;;;5045282;28;19916;-79
2022/12/19 01:20:06;;;;;;;;;;;9.60;99.90;;;;;;5049662;28;19924;-79
2022/12/19 01:22:31;;;;;;;;;;;9.60;99.90;;;;;;5044847;28;19909;-78
2022/12/19 01:24:57;;;;;;;;;;;9.80;99.90;;;;;;5050852;28;20327;-80
2022/12/19 01:27:22;;;;;;;;;;;9.70;99.90;;;;;;5045877;28;20370;-77
2022/12/19 01:29:48;;;;;;;;;;;9.90;99.90;;;;;;5047265;28;19917;-78
2022/12/19 01:32:13;;;;;;;;;;;9.80;99.90;;;;;;5046114;28;19913;-80
2022/12/19 01:34:39;;;;;;;;;;;9.90;99.90;;;;;;5048577;28;20414;-79
2022/12/19 01:37:04;;;;;;;;;;;10.00;99.90;;;;;;5042007;28;19928;-80
2022/12/19 01:39:30;;;;;;;;;;;10.20;99.90;;;;;;5041366;28;19913;-79
2022/12/19 01:41:56;;;;;;;;;;;10.10;99.90;;;;;;5040217;28;19920;-79
2022/12/19 01:44:23;;;;;;;;;;;10.20;99.90;;;;;;5040799;28;19973;-78
2022/12/19 01:46:49;;;;;;;;;;;10.10;99.90;;;;;;5045260;28;21046;-82
2022/12/19 01:49:30;;;;;;;;;;;10.40;99.90;;;;;;5043112;28;19913;-79
2022/12/19 01:51:57;;;;;;;;;;;10.30;99.90;;;;;;5046690;28;19913;-79
2022/12/19 01:54:32;;;;;;;;;;;10.50;99.90;;;;;;5048165;28;19931;-78
2022/12/19 01:56:59;;;;;;;;;;;10.60;99.90;;;;;;5044939;28;19913;-77
2022/12/19 01:59:28;;;;;;;;;;;10.70;99.90;;;;;;5045691;28;19939;-80
2022/12/19 02:01:55;;;;;;;;;;;10.60;99.90;;;;;;5047290;28;19916;-76
2022/12/19 02:04:22;;;;;;;;;;;10.70;99.90;;;;;;5048540;28;19928;-80
2022/12/19 02:06:48;;;;;;;;;;;10.90;99.90;;;;;;5047047;28;19913;-78
2022/12/19 02:09:14;;;;;;;;;;;10.70;99.90;;;;;;5044801;28;19920;-79
2022/12/19 02:11:39;;;;;;;;;;;11.00;99.90;;;;;;5047061;28;19921;-81
2022/12/19 02:14:05;;;;;;;;;;;11.10;99.90;;;;;;5047905;28;19923;-79
2022/12/19 02:16:41;;;;;;;;;;;11.20;99.90;;;;;;5048752;28;20514;-78
2022/12/19 02:19:12;;;;;;;;;;;11.20;99.90;;;;;;5043323;28;19921;-79
2022/12/19 02:21:43;;;;;;;;;;;11.20;99.90;;;;;;5046850;28;19919;-77
2022/12/19 02:24:15;;;;;;;;;;;11.30;99.90;;;;;;5048456;28;19952;-79
2022/12/19 02:26:43;;;;;;;;;;;11.30;99.90;;;;;;5049811;28;19916;-79
2022/12/19 02:29:23;;;;;;;;;;;11.50;99.90;;;;;;5048505;28;20594;-78
2022/12/19 02:31:54;;;;;;;;;;;11.70;99.90;;;;;;5047305;28;20002;-80
2022/12/19 02:34:23;;;;;;;;;;;11.60;99.90;;;;;;5045192;28;19971;-80
2022/12/19 02:36:54;;;;;;;;;;;11.80;99.90;;;;;;5050923;28;19927;-79
2022/12/19 02:39:31;;;;;;;;;;;11.60;99.90;;;;;;5045538;28;20374;-80
2022/12/19 02:41:57;;;;;;;;;;;11.70;99.90;;;;;;5052332;28;19956;-78
2022/12/19 02:44:29;;;;;;;;;;;12.00;99.90;;;;;;5045211;28;19913;-80
2022/12/19 02:46:55;;;;;;;;;;;12.00;99.90;;;;;;5049147;28;19913;-80
2022/12/19 02:49:20;;;;;;;;;;;11.90;99.90;;;;;;5049968;28;19960;-79
2022/12/19 02:51:46;;;;;;;;;;;12.20;99.90;;;;;;5054834;28;19913;-79
2022/12/19 02:54:11;;;;;;;;;;;12.20;99.90;;;;;;5056990;28;20023;-78
2022/12/19 02:56:40;;;;;;;;;;;12.30;99.90;;;;;;5050316;28;19909;-78
2022/12/19 02:59:27;;;;;;;;;;;12.50;99.90;;;;;;5052669;28;19913;-80
2022/12/19 03:01:58;;;;;;;;;;;12.30;99.90;;;;;;5049987;28;20145;-78
2022/12/19 03:04:36;;;;;;;;;;;12.40;99.90;;;;;;5055904;28;19925;-80
2022/12/19 03:07:01;;;;;;;;;;;12.60;99.90;;;;;;5038064;28;19909;-79
2022/12/19 03:09:36;;;;;;;;;;;12.80;99.90;;;;;;5044699;28;19975;-80
2022/12/19 03:12:05;;;;;;;;;;;12.90;99.90;;;;;;5042741;28;19913;-78
2022/12/19 03:14:31;;;;;;;;;;;12.80;99.90;;;;;;5047109;28;19916;-81
2022/12/19 03:17:01;;;;;;;;;;;13.00;99.90;;;;;;5045983;28;19920;-80
2022/12/19 03:19:26;;;;;;;;;;;12.90;99.90;;;;;;5046101;28;19996;-79
2022/12/19 03:21:53;;;;;;;;;;;13.00;99.90;;;;;;5044914;28;19963;-81
2022/12/19 03:24:19;;;;;;;;;;;13.10;99.90;;;;;;5046764;28;19913;-79
2022/12/19 03:26:54;;;;;;;;;;;13.30;99.90;;;;;;5046368;28;19931;-80
2022/12/19 03:29:22;;;;;;;;;;;13.40;99.90;;;;;;5044677;28;19963;-80
2022/12/19 03:31:48;;;;;;;;;;;13.40;99.90;;;;;;5046932;28;19909;-81
2022/12/19 03:34:31;;;;;;;;;;;13.40;99.90;;;;;;5044085;28;19920;-78
2022/12/19 03:37:00;;;;;;;;;;;13.60;99.90;;;;;;5047651;28;19920;-79
2022/12/19 03:39:26;;;;;;;;;;;13.60;99.90;;;;;;5037981;28;20492;-80
2022/12/19 03:44:39;;;;;;;;;;;13.60;99.90;;;;;;5044564;28;20012;-81
2022/12/19 03:47:08;;;;;;;;;;;13.70;99.90;;;;;;5050153;28;19908;-79
2022/12/19 03:49:34;;;;;;;;;;;13.90;99.90;;;;;;5040133;28;19909;-80
2022/12/19 03:52:18;;;;;;;;;;;14.00;99.90;;;;;;5046477;28;19916;-77
2022/12/19 03:55:04;;;;;;;;;;;14.20;99.90;;;;;;5045737;28;19916;-78
2022/12/19 03:57:34;;;;;;;;;;;14.20;99.90;;;;;;5033348;28;19959;-79
2022/12/19 04:00:07;;;;;;;;;;;14.20;99.90;;;;;;5042052;28;19996;-77
2022/12/19 04:02:35;;;;;;;;;;;14.30;99.90;;;;;;5046670;28;19992;-79
2022/12/19 04:05:03;;;;;;;;;;;14.30;99.90;;;;;;5041907;28;19909;-81
2022/12/19 04:07:29;;;;;;;;;;;14.40;99.90;;;;;;5046570;28;20027;-78
2022/12/19 04:09:56;;;;;;;;;;;14.30;99.90;;;;;;5041925;28;19913;-80
2022/12/19 04:12:28;;;;;;;;;;;14.40;99.90;;;;;;5044746;28;19920;-79
2022/12/19 04:14:54;;;;;;;;;;;14.60;99.90;;;;;;5043104;28;19917;-76
2022/12/19 04:17:24;;;;;;;;;;;14.70;99.90;;;;;;5047325;28;20242;-78
2022/12/19 04:19:54;;;;;;;;;;;14.90;99.90;;;;;;5056814;28;19913;-80
2022/12/19 04:22:21;;;;;;;;;;;15.00;99.90;;;;;;5044324;28;19913;-79
2022/12/19 04:24:48;;;;;;;;;;;14.80;99.90;;;;;;5046698;28;19921;-80
2022/12/19 04:27:14;;;;;;;;;;;15.10;99.90;;;;;;5049292;28;19913;-77
2022/12/19 04:29:40;;;;;;;;;;;15.10;99.90;;;;;;5050719;28;19917;-79
2022/12/19 04:32:07;;;;;;;;;;;15.10;99.90;;;;;;5046852;28;19916;-80
2022/12/19 04:34:32;;;;;;;;;;;15.50;99.90;;;;;;5049274;28;19921;-78
2022/12/19 04:37:01;;;;;;;;;;;15.80;99.90;;;;;;5041663;28;19912;-78
2022/12/19 04:39:27;;;;;;;;;;;15.90;99.90;;;;;;5047912;28;19958;-79
2022/12/19 04:41:52;;;;;;;;;;;15.90;99.90;;;;;;5062057;28;19913;-79
2022/12/19 04:44:18;;;;;;;;;;;16.10;99.90;;;;;;5040336;28;20359;-78
2022/12/19 04:46:43;;;;;;;;;;;16.10;99.90;;;;;;5050329;28;19916;-79
2022/12/19 04:49:09;;;;;;;;;;;16.50;99.90;;;;;;5047804;28;19913;-78
2022/12/19 04:51:34;;;;;;;;;;;16.30;99.90;;;;;;5045461;28;19914;-78
2022/12/19 04:53:59;;;;;;;;;;;16.40;99.90;;;;;;5049956;28;20578;-77
2022/12/19 04:56:25;;;;;;;;;;;16.60;99.90;;;;;;5048866;28;19927;-78
2022/12/19 04:58:57;;;;;;;;;;;16.80;99.90;;;;;;5045914;28;19913;-78
2022/12/19 05:01:23;;;;;;;;;;;17.00;99.90;;;;;;5052369;28;19942;-79
2022/12/19 05:03:49;;;;;;;;;;;17.10;99.90;;;;;;5054205;28;19932;-78
2022/12/19 05:06:14;;;;;;;;;;;16.90;99.90;;;;;;5045505;28;19913;-78
2022/12/19 05:08:41;;;;;;;;;;;17.00;99.90;;;;;;5047068;28;19916;-79
2022/12/19 05:11:07;;;;;;;;;;;17.40;99.90;;;;;;5040581;28;19913;-79
2022/12/19 05:13:33;;;;;;;;;;;17.30;99.90;;;;;;5043554;28;19921;-78
2022/12/19 05:16:00;;;;;;;;;;;17.30;99.90;;;;;;5041804;28;19913;-78
2022/12/19 05:18:25;;;;;;;;;;;17.30;99.90;;;;;;5051490;28;19913;-78
2022/12/19 05:20:51;;;;;;;;;;;17.40;99.90;;;;;;5040191;28;19939;-78
2022/12/19 05:23:16;;;;;;;;;;;17.60;99.90;;;;;;5035240;28;19920;-78
2022/12/19 05:25:42;;;;;;;;;;;17.40;99.90;;;;;;5041969;28;19920;-77
2022/12/19 05:28:07;;;;;;;;;;;17.70;99.90;;;;;;5043557;28;20015;-77
2022/12/19 05:30:33;;;;;;;;;;;17.90;99.90;;;;;;5035925;28;19921;-77
2022/12/19 05:32:58;;;;;;;;;;;17.90;99.90;;;;;;5046160;28;19924;-77
2022/12/19 05:35:24;;;;;;;;;;;17.90;99.90;;;;;;5047460;28;19909;-78
2022/12/19 05:37:49;;;;;;;;;;;17.90;99.90;;;;;;5041927;28;19920;-77
2022/12/19 05:40:15;;;;;;;;;;;18.00;99.90;;;;;;5042741;28;19944;-77
2022/12/19 05:42:40;;;;;;;;;;;18.00;99.90;;;;;;5045516;28;19913;-78
2022/12/19 05:45:06;;;;;;;;;;;18.10;99.90;;;;;;5043571;28;19913;-77
2022/12/19 05:47:31;;;;;;;;;;;17.80;99.90;;;;;;5041566;28;19913;-78
2022/12/19 05:49:57;;;;;;;;;;;17.90;99.90;;;;;;5047758;28;20415;-80
2022/12/19 05:52:23;;;;;;;;;;;18.00;99.90;;;;;;5041907;28;19923;-76
2022/12/19 05:54:49;;;;;;;;;;;18.00;99.90;;;;;;5048744;28;20003;-77
2022/12/19 05:57:14;;;;;;;;;;;18.10;99.90;;;;;;5041749;28;20026;-78
2022/12/19 05:59:39;;;;;;;;;;;18.00;99.90;;;;;;5043379;28;19920;-81
2022/12/19 06:02:05;;;;;;;;;;;18.10;99.90;;;;;;5042460;28;20591;-81
2022/12/19 06:04:30;;;;;;;;;;;18.10;99.90;;;;;;5048925;28;19978;-79
2022/12/19 06:06:56;;;;;;;;;;;18.10;99.90;;;;;;5053516;28;19908;-76
2022/12/19 06:09:21;;;;;;;;;;;18.30;99.90;;;;;;5047742;28;19912;-79
2022/12/19 06:11:47;;;;;;;;;;;18.30;99.90;;;;;;5038646;28;19952;-78
2022/12/19 06:14:12;;;;;;;;;;;18.30;99.90;;;;;;5037413;28;19924;-76
2022/12/19 06:16:38;;;;;;;;;;;18.20;99.90;;;;;;5050601;28;19909;-78
2022/12/19 06:19:03;;;;;;;;;;;18.40;99.90;;;;;;5042873;28;19961;-76
2022/12/19 06:21:29;;;;;;;;;;;18.40;99.90;;;;;;5044894;28;19955;-76
2022/12/19 06:23:54;;;;;;;;;;;18.20;99.90;;;;;;5049174;28;19997;-77
2022/12/19 06:26:21;;;;;;;;;;;18.30;99.90;;;;;;5046094;28;19920;-79
2022/12/19 06:28:47;;;;;;;;;;;18.20;99.90;;;;;;5042451;28;19920;-78
2022/12/19 06:31:13;;;;;;;;;;;18.30;99.90;;;;;;5049438;28;19916;-78
2022/12/19 06:33:38;;;;;;;;;;;18.40;99.90;;;;;;5048098;28;20287;-77
2022/12/19 06:36:05;;;;;;;;;;;18.20;99.90;;;;;;5049589;28;19945;-77
2022/12/19 06:38:31;;;;;;;;;;;18.20;99.90;;;;;;5049496;28;19987;-78
2022/12/19 06:43:41;;;;;;;;;;;18.10;99.90;;;;;;5050753;28;19923;-80
2022/12/19 06:46:07;;;;;;;;;;;18.30;99.90;;;;;;5050565;28;19909;-77
2022/12/19 06:48:32;;;;;;;;;;;18.30;99.90;;;;;;5049803;28;19909;-77
2022/12/19 06:50:58;;;;;;;;;;;18.20;99.90;;;;;;5049267;28;19920;-77
2022/12/19 06:53:23;;;;;;;;;;;17.90;99.90;;;;;;5045707;28;20406;-75
2022/12/19 06:55:50;;;;;;;;;;;17.90;99.90;;;;;;5044780;28;20337;-78
2022/12/19 06:58:16;;;;;;;;;;;18.20;99.90;;;;;;5043593;28;19912;-78
2022/12/19 07:00:41;;;;;;;;;;;18.20;99.90;;;;;;5051807;28;20571;-77
2022/12/19 07:03:09;;;;;;;;;;;18.30;99.90;;;;;;5049013;28;20364;-79
2022/12/19 07:05:34;;;;;;;;;;;18.30;99.90;;;;;;5051638;28;19980;-78
2022/12/19 07:08:00;;;;;;;;;;;18.10;99.90;;;;;;5047922;28;19948;-76
2022/12/19 07:10:25;;;;;;;;;;;17.80;99.90;;;;;;5053436;28;19908;-79
2022/12/19 07:12:51;;;;;;;;;;;17.90;99.90;;;;;;5048673;28;19966;-78
2022/12/19 07:15:16;;;;;;;;;;;17.90;99.90;;;;;;5046749;28;20286;-78
2022/12/19 07:17:42;;;;;;;;;;;17.90;99.90;;;;;;5039987;28;19909;-76
2022/12/19 07:20:07;;;;;;;;;;;17.60;99.90;;;;;;5035959;28;19916;-76
2022/12/19 07:22:33;;;;;;;;;;;17.80;99.90;;;;;;5046588;28;20012;-76
2022/12/19 07:25:00;;;;;;;;;;;17.50;99.90;;;;;;5044985;28;20035;-77
2022/12/19 07:27:27;;;;;;;;;;;17.60;99.90;;;;;;5052848;28;19913;-78
2022/12/19 07:29:52;;;;;;;;;;;17.50;99.90;;;;;;5041315;28;20397;-77
2022/12/19 07:32:18;;;;;;;;;;;17.40;99.90;;;;;;5046052;28;19913;-77
2022/12/19 07:34:43;;;;;;;;;;;17.40;99.90;;;;;;5043725;28;19913;-77
2022/12/19 07:37:09;;;;;;;;;;;17.60;99.90;;;;;;5040245;28;20128;-80
2022/12/19 07:39:34;;;;;;;;;;;17.40;99.90;;;;;;5035389;28;19909;-77
2022/12/19 07:41:59;;;;;;;;;;;17.50;99.90;;;;;;5039795;28;19909;-77
2022/12/19 07:44:25;;;;;;;;;;;17.20;99.90;;;;;;5045500;28;20402;-78
2022/12/19 07:46:50;;;;;;;;;;;17.20;99.90;;;;;;5040764;28;19980;-79
2022/12/19 07:49:16;;;;;;;;;;;17.20;99.90;;;;;;5045523;28;19908;-78
2022/12/19 07:51:41;;;;;;;;;;;17.50;99.90;;;;;;5047036;28;19974;-79
2022/12/19 07:54:07;;;;;;;;;;;17.30;99.90;;;;;;5048073;28;19943;-77
2022/12/19 07:56:32;;;;;;;;;;;17.20;99.90;;;;;;5042428;28;19944;-78
2022/12/19 07:58:58;;;;;;;;;;;17.50;99.90;;;;;;5052756;28;19936;-77
2022/12/19 08:01:23;;;;;;;;;;;17.50;99.90;;;;;;5050899;28;20623;-77
2022/12/19 08:03:49;;;;;;;;;;;17.30;99.90;;;;;;5046547;28;19921;-78
2022/12/19 08:06:14;;;;;;;;;;;17.40;99.90;;;;;;5046981;28;20444;-78
2022/12/19 08:08:40;;;;;;;;;;;17.40;99.90;;;;;;5046130;28;19965;-79
2022/12/19 08:11:09;;;;;;;;;;;17.30;99.90;;;;;;5048779;28;19916;-79
2022/12/19 08:13:34;;;;;;;;;;;17.40;99.90;;;;;;5044413;28;19920;-77
2022/12/19 08:16:00;;;;;;;;;;;17.60;99.90;;;;;;5044651;28;19910;-76
2022/12/19 08:18:25;;;;;;;;;;;17.50;99.90;;;;;;5040099;28;19909;-77
2022/12/19 08:20:51;;;;;;;;;;;17.40;99.90;;;;;;5037634;28;19914;-78
2022/12/19 08:23:16;;;;;;;;;;;17.50;99.90;;;;;;5041636;28;19925;-78
2022/12/19 08:25:42;;;;;;;;;;;17.30;99.90;;;;;;5049997;28;19955;-78
2022/12/19 08:28:07;;;;;;;;;;;17.50;99.90;;;;;;5043929;28;19913;-78
2022/12/19 08:30:33;;;;;;;;;;;17.30;99.90;;;;;;5040473;28;20430;-76
2022/12/19 08:32:59;;;;;;;;;;;17.30;99.90;;;;;;5042369;28;19970;-77
2022/12/19 08:35:24;;;;;;;;;;;17.20;99.90;;;;;;5052123;28;19988;-80
2022/12/19 08:37:50;;;;;;;;;;;17.20;99.90;;;;;;5053624;28;19924;-77
2022/12/19 08:40:15;;;;;;;;;;;17.40;99.90;;;;;;5043722;28;19921;-77
2022/12/19 08:42:41;;;;;;;;;;;17.40;99.90;;;;;;5050605;28;19917;-79
2022/12/19 08:45:06;;;;;;;;;;;17.20;99.90;;;;;;5046325;28;19944;-79
2022/12/19 08:47:32;;;;;;;;;;;17.40;99.90;;;;;;5053710;28;19959;-78
2022/12/19 08:49:57;;;;;;;;;;;17.40;99.90;;;;;;5044226;28;20596;-76
2022/12/19 08:52:23;;;;;;;;;;;17.20;99.90;;;;;;5049038;28;19945;-80
2022/12/19 08:54:48;;;;;;;;;;;17.20;99.90;;;;;;5049116;28;20299;-76
2022/12/19 08:57:14;;;;;;;;;;;17.40;99.90;;;;;;5050140;28;20026;-77
2022/12/19 08:59:39;;;;;;;;;;;17.30;99.90;;;;;;5049068;28;19909;-80
2022/12/19 09:02:05;;;;;;;;;;;17.50;99.90;;;;;;5058183;28;19909;-78
2022/12/19 09:04:30;;;;;;;;;;;17.30;99.90;;;;;;5054890;28;19924;-77
2022/12/19 09:06:56;;;;;;;;;;;17.20;99.90;;;;;;5061895;28;19908;-78
2022/12/19 09:09:21;;;;;;;;;;;17.30;99.90;;;;;;5046145;28;19915;-79
2022/12/19 09:11:47;;;;;;;;;;;17.40;99.90;;;;;;5052274;28;19956;-79
2022/12/19 09:14:12;;;;;;;;;;;17.40;99.90;;;;;;5052938;28;20000;-78
2022/12/19 09:16:38;;;;;;;;;;;17.40;99.90;;;;;;5040727;28;19920;-84
2022/12/19 09:19:03;;;;;;;;;;;17.20;99.90;;;;;;5052470;28;19945;-79
2022/12/19 09:21:29;;;;;;;;;;;17.20;99.90;;;;;;5054486;28;19948;-77
2022/12/19 09:23:56;;;;;;;;;;;17.30;99.90;;;;;;5058191;28;19916;-78
2022/12/19 09:26:22;;;;;;;;;;;17.30;99.90;;;;;;5055302;28;19963;-78
2022/12/19 09:28:48;;;;;;;;;;;17.40;99.90;;;;;;5054397;28;19908;-78
2022/12/19 09:31:15;;;;;;;;;;;17.40;99.90;;;;;;5056685;28;20190;-81
2022/12/19 09:33:41;;;;;;;;;;;17.60;99.90;;;;;;5065035;28;19974;-80
2022/12/19 09:36:07;;;;;;;;;;;17.50;99.90;;;;;;5042148;28;20008;-79
2022/12/19 09:38:33;;;;;;;;;;;17.50;99.90;;;;;;5040069;28;19909;-81
2022/12/19 09:41:17;;;;;;;;;;;17.50;99.90;;;;;;5040845;28;19919;-75
2022/12/19 09:43:45;;;;;;;;;;;17.60;99.90;;;;;;5050506;28;19917;-79
2022/12/19 09:46:18;;;;;;;;;;;17.70;99.90;;;;;;5043633;28;19909;-78
2022/12/19 09:48:45;;;;;;;;;;;17.70;99.90;;;;;;5051511;28;20430;-76
2022/12/19 09:51:13;;;;;;;;;;;17.70;99.90;;;;;;5042324;28;20007;-77
2022/12/19 09:53:54;;;;;;;;;;;17.70;99.90;;;;;;5047565;28;19909;-78
2022/12/19 09:56:20;;;;;;;;;;;17.60;99.90;;;;;;5057861;28;19980;-79
2022/12/19 09:58:48;;;;;;;;;;;17.50;99.90;;;;;;5049530;28;19976;-77
2022/12/19 10:01:27;;;;;;;;;;;17.40;99.90;;;;;;5068207;28;19916;-80
2022/12/19 10:04:01;;;;;;;;;;;17.50;99.90;;;;;;5042293;28;20032;-77
2022/12/19 10:06:28;;;;;;;;;;;17.50;99.90;;;;;;5054822;28;19920;-76
2022/12/19 10:08:53;;;;;;;;;;;17.50;99.90;;;;;;5063649;28;19980;-80
2022/12/19 10:11:28;;;;;;;;;;;17.40;99.90;;;;;;5052501;28;19940;-78
2022/12/19 10:13:59;;;;;;;;;;;17.40;99.90;;;;;;5055879;28;19944;-78
2022/12/19 10:16:43;;;;;;;;;;;17.40;99.90;;;;;;5055314;28;19936;-78
2022/12/19 10:19:12;;;;;;;;;;;17.60;99.90;;;;;;5057175;28;20527;-79
2022/12/19 10:21:42;;;;;;;;;;;17.40;99.90;;;;;;5053088;28;19962;-79
2022/12/19 10:24:17;;;;;;;;;;;17.50;99.90;;;;;;5049372;28;19965;-78
2022/12/19 10:26:50;;;;;;;;;;;17.50;99.90;;;;;;5053962;28;19944;-78
2022/12/19 10:29:15;;;;;;;;;;;17.40;99.90;;;;;;5052793;28;19923;-77
2022/12/19 10:31:47;;;;;;;;;;;17.40;99.90;;;;;;5045759;28;19913;-77
2022/12/19 10:34:19;;;;;;;;;;;17.30;99.90;;;;;;5052647;28;19971;-77
2022/12/19 10:36:47;;;;;;;;;;;17.30;99.90;;;;;;5060039;28;19913;-78
2022/12/19 10:39:33;;;;;;;;;;;17.30;99.90;;;;;;5059343;28;19916;-76
2022/12/19 10:42:06;;;;;;;;;;;17.30;99.90;;;;;;5062380;28;19909;-77
2022/12/19 10:44:33;;;;;;;;;;;17.10;99.90;;;;;;5064215;28;19908;-78
2022/12/19 10:46:59;;;;;;;;;;;17.10;99.90;;;;;;5063169;28;19980;-75
2022/12/19 10:49:25;;;;;;;;;;;17.00;99.90;;;;;;5056633;28;19932;-77
2022/12/19 10:51:59;;;;;;;;;;;17.10;99.90;;;;;;5050902;28;19909;-76
2022/12/19 10:54:25;;;;;;;;;;;17.00;99.90;;;;;;5049467;28;20012;-76
2022/12/19 10:56:50;;;;;;;;;;;17.00;99.90;;;;;;5047777;28;19909;-78
2022/12/19 10:59:17;;;;;;;;;;;17.00;99.90;;;;;;5042454;28;19912;-78
2022/12/19 11:01:43;;;;;;;;;;;17.00;99.90;;;;;;5050924;28;19909;-79
2022/12/19 11:04:29;;;;;;;;;;;17.00;99.90;;;;;;5047197;28;19971;-76
2022/12/19 11:07:01;;;;;;;;;;;17.00;99.90;;;;;;5045582;28;19917;-76
2022/12/19 11:09:28;;;;;;;;;;;17.10;99.90;;;;;;5049220;28;20379;-78
2022/12/19 11:12:13;;;;;;;;;;;17.20;99.90;;;;;;5039260;28;19936;-78
2022/12/19 11:14:44;;;;;;;;;;;17.40;99.90;;;;;;5047008;28;19988;-78
2022/12/19 11:17:25;;;;;;;;;;;17.40;99.90;;;;;;5046632;28;19909;-77
2022/12/19 11:19:51;;;;;;;;;;;17.50;99.90;;;;;;5045233;28;19936;-78
2022/12/19 11:22:21;;;;;;;;;;;17.50;99.90;;;;;;5045335;28;19909;-78
2022/12/19 11:24:49;;;;;;;;;;;17.50;99.90;;;;;;5051713;28;19917;-78
2022/12/19 11:27:29;;;;;;;;;;;17.50;99.90;;;;;;5047040;28;19917;-78
2022/12/19 11:29:56;;;;;;;;;;;17.50;99.90;;;;;;5047596;28;19962;-79
2022/12/19 11:32:31;;;;;;;;;;;17.40;99.90;;;;;;5047681;28;19917;-77
2022/12/19 11:35:01;;;;;;;;;;;17.50;99.90;;;;;;5045797;28;19952;-78
2022/12/19 11:37:32;;;;;;;;;;;17.50;99.90;;;;;;5048281;28;20054;-77
2022/12/19 11:40:01;;;;;;;;;;;17.50;99.90;;;;;;5043607;28;19924;-76
2022/12/19 11:42:32;;;;;;;;;;;17.50;99.90;;;;;;5046372;28;20294;-79
2022/12/19 11:44:58;;;;;;;;;;;17.50;99.90;;;;;;5044476;28;19909;-79
2022/12/19 11:47:31;;;;;;;;;;;17.40;99.90;;;;;;5044351;28;19919;-80
2022/12/19 11:50:15;;;;;;;;;;;17.30;99.90;;;;;;5048157;28;20627;-77
2022/12/19 11:52:45;;;;;;;;;;;17.30;99.90;;;;;;5042941;28;20007;-78
2022/12/19 11:55:23;;;;;;;;;;;17.20;99.90;;;;;;5045949;28;20244;-76
2022/12/19 11:57:49;;;;;;;;;;;17.10;99.90;;;;;;5041530;28;20287;-78
2022/12/19 12:00:19;;;;;;;;;;;17.00;99.90;;;;;;5047810;28;19912;-79
2022/12/19 12:02:48;;;;;;;;;;;17.00;99.90;;;;;;5038530;28;19912;-76
2022/12/19 12:05:22;;;;;;;;;;;16.90;99.90;;;;;;5039258;28;20338;-77
2022/12/19 12:07:54;;;;;;;;;;;16.70;99.90;;;;;;5042394;28;19916;-74
2022/12/19 12:10:20;;;;;;;;;;;16.60;99.90;;;;;;5042478;28;19913;-78
2022/12/19 12:13:04;;;;;;;;;;;16.40;99.90;;;;;;5038799;28;20609;-77
2022/12/19 12:15:36;;;;;;;;;;;16.10;99.90;;;;;;5043365;28;20530;-78
2022/12/19 12:18:20;;;;;;;;;;;16.00;99.90;;;;;;5047118;28;19913;-77
2022/12/19 12:20:45;;;;;;;;;;;15.80;99.90;;;;;;5040237;28;19916;-77
2022/12/19 12:23:19;;;;;;;;;;;15.60;99.90;;;;;;5036440;28;19909;-77
2022/12/19 12:25:49;;;;;;;;;;;15.30;99.90;;;;;;5047666;28;19951;-78
2022/12/19 12:28:34;;;;;;;;;;;15.10;99.90;;;;;;5042706;28;20306;-78
2022/12/19 12:31:02;;;;;;;;;;;14.80;99.90;;;;;;5043196;28;19978;-74
2022/12/19 12:33:40;;;;;;;;;;;14.60;99.90;;;;;;5041139;28;20426;-77
2022/12/19 12:36:11;;;;;;;;;;;14.40;99.90;;;;;;5043754;28;19999;-78
2022/12/19 12:39:09;;;;;;;;;;;13.90;99.90;;;;;;5043892;28;19909;-77
2022/12/19 12:44:22;;;;;;;;;;;13.20;99.90;;;;;;5027947;28;19920;-78
2022/12/19 12:46:48;;;;;;;;;;;13.00;99.90;;;;;;5045138;28;19908;-78
2022/12/19 12:49:36;;;;;;;;;;;12.70;99.90;;;;;;5043074;28;19917;-77
2022/12/19 12:52:03;;;;;;;;;;;12.60;99.90;;;;;;5039870;28;19971;-75
2022/12/19 12:54:32;;;;;;;;;;;12.30;99.90;;;;;;5043203;28;20007;-73
2022/12/19 12:56:57;;;;;;;;;;;12.10;99.90;;;;;;5042268;28;20409;-75
2022/12/19 12:59:25;;;;;;;;;;;12.00;99.90;;;;;;5043841;28;19940;-77
2022/12/19 13:02:06;;;;;;;;;;;11.80;99.90;;;;;;5044028;28;19940;-77
2022/12/19 13:04:33;;;;;;;;;;;11.70;99.90;;;;;;5045831;28;19921;-76
2022/12/19 13:07:11;;;;;;;;;;;11.60;99.90;;;;;;5046860;28;19923;-72
2022/12/19 13:09:37;;;;;;;;;;;11.50;99.90;;;;;;5046150;28;19939;-76
2022/12/19 13:15:22;;;;;;;;;;;11.30;99.90;;;;;;5044452;28;19920;-76
2022/12/19 13:17:48;;;;;;;;;;;11.20;99.90;;;;;;5046749;28;19917;-76
2022/12/19 13:20:33;;;;;;;;;;;11.20;99.90;;;;;;5044443;28;19917;-77
2022/12/19 13:23:04;;;;;;;;;;;11.10;99.90;;;;;;5044958;28;19908;-73
2022/12/19 13:25:29;;;;;;;;;;;11.10;99.90;;;;;;5046491;28;19916;-74
2022/12/19 13:28:13;;;;;;;;;;;11.00;99.90;;;;;;5046005;28;19909;-75
2022/12/19 13:30:58;;;;;;;;;;;10.90;99.90;;;;;;5051005;28;19974;-75
2022/12/19 13:33:43;;;;;;;;;;;10.90;99.90;;;;;;5049557;28;19913;-75
2022/12/19 13:36:27;;;;;;;;;;;10.90;99.90;;;;;;5048449;28;19971;-76
2022/12/19 13:38:57;;;;;;;;;;;10.80;99.90;;;;;;5046786;28;19917;-76
2022/12/19 13:44:17;;;;;;;;;;;10.70;99.90;;;;;;5046242;28;19919;-75
2022/12/19 13:46:44;;;;;;;;;;;10.60;99.90;;;;;;5046159;28;20418;-77
2022/12/19 13:49:12;;;;;;;;;;;10.70;99.90;;;;;;5047803;28;19913;-76
2022/12/19 13:51:54;;;;;;;;;;;10.70;99.90;;;;;;5043781;28;20008;-76
2022/12/19 13:54:22;;;;;;;;;;;10.60;99.90;;;;;;5032086;28;19923;-74
2022/12/19 13:56:48;;;;;;;;;;;10.60;99.90;;;;;;5043843;28;19923;-76
2022/12/19 13:59:14;;;;;;;;;;;10.70;99.90;;;;;;5049142;28;19909;-75
2022/12/19 14:01:39;;;;;;;;;;;10.70;99.90;;;;;;5053972;28;19916;-77
2022/12/19 14:04:11;;;;;;;;;;;10.60;99.90;;;;;;5045682;28;19917;-76
2022/12/19 14:06:41;;;;;;;;;;;10.60;99.90;;;;;;5044273;28;20394;-74
2022/12/19 14:09:08;;;;;;;;;;;10.50;99.90;;;;;;5045409;28;19909;-77
2022/12/19 14:11:42;;;;;;;;;;;10.60;99.90;;;;;;5043696;28;19912;-75
2022/12/19 14:17:07;;;;;;;;;;;10.50;99.90;;;;;;5043487;28;20008;-74
2022/12/19 14:19:37;;;;;;;;;;;10.50;99.90;;;;;;5035709;28;19959;-74
2022/12/19 14:22:11;;;;;;;;;;;10.40;99.90;;;;;;5045388;28;19917;-77
2022/12/19 14:24:37;;;;;;;;;;;10.50;99.90;;;;;;5045856;28;19976;-75
2022/12/19 14:27:04;;;;;;;;;;;10.50;99.90;;;;;;5043317;28;19963;-75
2022/12/19 14:29:49;;;;;;;;;;;10.60;99.90;;;;;;5041114;28;19939;-74
2022/12/19 14:32:16;;;;;;;;;;;10.50;99.90;;;;;;5045997;28;19939;-75
2022/12/19 14:34:42;;;;;;;;;;;10.60;99.90;;;;;;5055380;28;19924;-75
2022/12/19 14:37:25;;;;;;;;;;;10.60;99.90;;;;;;5057468;28;19917;-75
2022/12/19 14:39:56;;;;;;;;;;;10.60;99.90;;;;;;5047343;28;19912;-76
2022/12/19 14:45:24;;;;;;;;;;;10.50;99.90;;;;;;5040872;28;19939;-74
2022/12/19 14:47:50;;;;;;;;;;;10.50;99.90;;;;;;5042172;28;19944;-76